Terminal Aerodrome Forecast
Issued by NWS

Home | Current Version | Previous Version | Text Only | Print | Product List | Glossary On
Versions: 1 2 3 4 5 6 7 8 9 10 11 12 13 14 15 16
264
FTUS45 KRIW 212333
TAFCPR
TAF
KCPR 212333Z 2200/2224 22034G48KT P6SM SCT200
     FM220100 22020G30KT P6SM BKN100
     FM220400 26016KT P6SM VCSH BKN050
     FM220600 26016KT P6SM -SHRA BKN040
     FM220900 23012KT P6SM BKN090
     FM221900 29015KT P6SM BKN060=

USA.gov is the U.S. government's official web portal to all federal, state and local government web resources and services.